Time;durP1;ratioP1;P1;durP2;ratioP2;P2;SDS_P1;SDS_P2;PMS_P1;PMS_P2;Temp;Humidity;BMP_temperature;BMP_pressure;BME280_temperature;BME280_humidity;BME280_pressure;Samples;Min_cycle;Max_cycle;Signal;HPM_P1;HPM_P2
2021/12/05 00:21:10;;;;;;;11.05;5.10;;;;;;;8.09;77.42;99214.22;3074819;28;20054;-76
2021/12/05 00:22:43;;;;;;;9.05;5.50;;;;;;;8.05;77.63;99213.50;3073684;28;20512;-78
2021/12/05 00:24:19;;;;;;;8.27;5.10;;;;;;;8.06;77.23;99206.56;3072447;28;20054;-77
2021/12/05 00:25:54;;;;;;;10.80;5.30;;;;;;;8.05;77.57;99210.09;3075523;28;20133;-77
2021/12/05 00:27:31;;;;;;;14.35;5.28;;;;;;;8.05;77.40;99210.91;3065329;28;20079;-78
2021/12/05 00:29:12;;;;;;;8.75;5.28;;;;;;;8.08;77.48;99208.19;3073280;28;21013;-78
2021/12/05 00:31:07;;;;;;;10.38;5.30;;;;;;;8.07;77.81;99206.50;3075099;28;20425;-76
2021/12/05 00:32:49;;;;;;;13.23;5.72;;;;;;;7.77;77.87;99161.19;3076731;28;20126;-76
2021/12/05 00:42:30;;;;;;;12.10;6.88;;;;;;;7.99;77.51;99211.19;3072517;28;20046;-75
2021/12/05 00:46:24;;;;;;;12.07;6.05;;;;;;;7.95;77.69;99210.47;3054266;28;20050;-75
2021/12/05 00:48:08;;;;;;;11.05;5.93;;;;;;;7.91;77.73;99205.50;3071719;28;20047;-73
2021/12/05 00:50:04;;;;;;;10.10;5.47;;;;;;;7.93;77.59;99201.94;3076523;28;20061;-73
2021/12/05 00:52:17;;;;;;;11.38;5.03;;;;;;;7.93;77.84;99201.94;3075038;28;20058;-73
2021/12/05 00:56:08;;;;;;;7.25;5.60;;;;;;;7.87;77.58;99193.59;3036798;29;20111;-72
2021/12/05 00:59:54;;;;;;;8.73;3.85;;;;;;;7.87;77.36;99196.19;3030767;29;20557;-72
2021/12/05 01:02:11;;;;;;;4.95;3.20;;;;;;;7.84;77.22;99197.16;3052974;28;20054;-72
2021/12/05 01:07:43;;;;;;;4.68;3.13;;;;;;;7.69;77.17;99197.78;3038337;28;20063;-71
2021/12/05 01:09:27;;;;;;;5.10;3.47;;;;;;;7.68;77.14;99206.47;3073344;28;20342;-71
2021/12/05 01:13:14;;;;;;;6.97;4.32;;;;;;;7.62;77.19;99198.97;3070728;28;20150;-72
2021/12/05 01:15:03;;;;;;;10.25;5.70;;;;;;;7.63;76.90;99200.66;3075117;28;20231;-72
2021/12/05 01:16:36;;;;;;;11.07;7.13;;;;;;;7.63;77.20;99203.22;3072784;28;20098;-72
2021/12/05 01:18:12;;;;;;;12.25;7.53;;;;;;;7.64;76.96;99200.59;3074254;28;20082;-72
2021/12/05 01:19:44;;;;;;;11.18;6.90;;;;;;;7.59;77.04;99201.69;3072668;28;20054;-73
2021/12/05 01:21:19;;;;;;;13.32;7.60;;;;;;;7.60;77.23;99198.19;3075352;28;20796;-71
2021/12/05 01:22:58;;;;;;;10.63;7.53;;;;;;;7.51;77.28;99199.41;3074015;28;20110;-72
2021/12/05 01:24:44;;;;;;;12.80;8.23;;;;;;;7.46;77.18;99181.50;3073610;28;20499;-73
2021/12/05 01:26:20;;;;;;;14.20;7.65;;;;;;;7.58;77.01;99202.63;3072141;28;20050;-74
2021/12/05 01:28:00;;;;;;;12.07;7.38;;;;;;;7.59;77.23;99191.31;3070580;28;20110;-75
2021/12/05 01:29:41;;;;;;;9.50;6.55;;;;;;;7.58;77.45;99197.44;3078140;28;20063;-76
2021/12/05 01:31:20;;;;;;;8.35;5.53;;;;;;;7.54;77.12;99201.88;3075976;28;20055;-76
2021/12/05 01:33:00;;;;;;;9.48;5.25;;;;;;;7.55;77.17;99201.00;3076395;28;20057;-77
2021/12/05 01:34:48;;;;;;;8.38;5.68;;;;;;;7.56;77.13;99202.66;3078311;28;20054;-73
2021/12/05 01:36:29;;;;;;;10.15;6.63;;;;;;;7.53;77.31;99193.25;3075331;28;20058;-74
2021/12/05 01:38:08;;;;;;;15.50;8.02;;;;;;;7.54;77.26;99199.28;3078711;28;20054;-77
2021/12/05 01:39:53;;;;;;;8.35;5.80;;;;;;;7.54;77.42;99196.69;3077031;28;20110;-75
2021/12/05 01:42:16;;;;;;;7.38;5.25;;;;;;;7.40;77.54;99186.94;3072519;28;20082;-75
2021/12/05 01:44:27;;;;;;;8.75;5.72;;;;;;;7.35;77.92;99198.38;3073461;28;20078;-74
2021/12/05 01:48:16;;;;;;;8.75;5.15;;;;;;;7.16;78.20;99168.06;3075612;28;20171;-74
2021/12/05 01:52:13;;;;;;;10.45;7.43;;;;;;;7.32;78.38;99189.00;3061806;28;20582;-74
2021/12/05 01:54:04;;;;;;;13.32;6.57;;;;;;;7.37;78.33;99188.81;3078907;28;20050;-73
2021/12/05 01:56:03;;;;;;;10.10;6.90;;;;;;;7.40;77.82;99183.50;3075899;28;20606;-73
2021/12/05 01:58:05;;;;;;;14.10;6.35;;;;;;;7.39;78.15;99182.63;3078749;28;20081;-74
2021/12/05 01:59:55;;;;;;;10.55;6.25;;;;;;;7.33;78.16;99176.88;3077384;28;20066;-73
2021/12/05 02:10:58;;;;;;;10.45;5.93;;;;;;;7.47;78.16;99177.97;3050288;28;20633;-77
2021/12/05 02:16:44;;;;;;;10.55;4.75;;;;;;;7.52;77.78;99176.03;3078384;28;20137;-77
2021/12/05 02:30:00;;;;;;;6.70;4.13;;;;;;;7.49;78.00;99172.75;3065530;28;20051;-76
2021/12/05 02:31:47;;;;;;;8.05;4.07;;;;;;;7.44;78.20;99169.50;3076610;28;20058;-77
2021/12/05 02:33:33;;;;;;;7.50;4.10;;;;;;;7.47;78.00;99171.97;3075844;28;20065;-77
2021/12/05 02:35:21;;;;;;;7.65;4.13;;;;;;;7.48;78.06;99163.28;3078395;28;20495;-77
2021/12/05 02:37:05;;;;;;;6.78;4.22;;;;;;;7.48;78.20;99169.31;3076522;28;20050;-77
2021/12/05 02:39:10;;;;;;;;;;;;;;;7.21;78.78;99162.69;3079279;28;20533;-76
2021/12/05 02:41:05;;;;;;;6.30;4.20;;;;;;;7.17;79.41;99151.63;3077580;28;20470;-77
2021/12/05 02:42:41;;;;;;;10.27;4.63;;;;;;;7.30;78.80;99151.94;3072671;28;20050;-77
2021/12/05 02:44:20;;;;;;;8.65;4.80;;;;;;;7.18;78.60;99118.81;3076124;28;20066;-77
2021/12/05 02:45:57;;;;;;;9.93;4.55;;;;;;;7.40;78.49;99150.66;3076786;28;20162;-77
2021/12/05 02:47:29;;;;;;;9.75;4.60;;;;;;;7.44;78.48;99148.78;3077555;28;20509;-77
2021/12/05 02:49:04;;;;;;;8.80;4.70;;;;;;;7.47;78.45;99151.25;3077784;28;20400;-77
2021/12/05 02:50:38;;;;;;;8.60;5.13;;;;;;;7.51;78.29;99147.59;3074431;28;20491;-77
2021/12/05 02:52:20;;;;;;;9.25;5.78;;;;;;;7.52;77.95;99149.31;3076756;28;20059;-73
2021/12/05 02:54:02;;;;;;;12.50;6.45;;;;;;;7.47;78.34;99149.47;3083392;28;20062;-73
2021/12/05 02:55:38;;;;;;;13.00;5.82;;;;;;;7.48;77.95;99143.41;3076546;28;20520;-73
2021/12/05 02:57:11;;;;;;;12.55;6.25;;;;;;;7.48;78.19;99138.22;3070873;28;20055;-73
2021/12/05 02:58:47;;;;;;;15.68;6.80;;;;;;;7.32;78.07;99113.88;3076697;28;20587;-73
2021/12/05 03:00:23;;;;;;;14.75;6.80;;;;;;;7.49;78.02;99139.06;3077191;28;20166;-73
2021/12/05 03:02:03;;;;;;;15.50;5.88;;;;;;;7.49;78.32;99139.06;3078030;28;20093;-73
2021/12/05 03:03:35;;;;;;;11.63;5.80;;;;;;;7.49;77.96;99136.47;3077457;28;20065;-72
2021/12/05 03:05:12;;;;;;;9.07;5.75;;;;;;;7.49;78.27;99137.31;3075265;28;20139;-73
2021/12/05 03:06:51;;;;;;;14.18;5.68;;;;;;;7.46;78.24;99140.03;3075516;28;20082;-73
2021/12/05 03:08:24;;;;;;;9.90;5.95;;;;;;;7.47;78.16;99139.13;3080959;28;20101;-73
2021/12/05 03:09:56;;;;;;;8.55;5.53;;;;;;;7.49;78.05;99150.28;3076585;28;20133;-73
2021/12/05 03:11:30;;;;;;;12.15;6.70;;;;;;;7.45;77.98;99143.56;3078628;28;20599;-73
2021/12/05 03:13:02;;;;;;;12.00;6.38;;;;;;;7.46;77.96;99147.81;3079149;28;20058;-73
2021/12/05 03:14:34;;;;;;;11.10;6.43;;;;;;;7.47;78.11;99151.25;3078852;28;20490;-73
2021/12/05 03:16:07;;;;;;;9.90;5.72;;;;;;;7.45;78.17;99156.50;3074423;28;20110;-74
2021/12/05 03:17:39;;;;;;;13.55;6.35;;;;;;;7.44;78.23;99154.78;3075782;28;20070;-73
2021/12/05 03:19:12;;;;;;;11.52;6.18;;;;;;;7.47;78.11;99153.84;3079653;28;20141;-74
2021/12/05 03:20:44;;;;;;;12.60;6.78;;;;;;;7.45;78.19;99148.72;3080220;28;20456;-74
2021/12/05 03:22:16;;;;;;;14.45;6.53;;;;;;;7.47;78.12;99149.47;3079228;28;20084;-74
2021/12/05 03:23:51;;;;;;;15.63;6.35;;;;;;;7.48;78.09;99142.56;3081482;28;20053;-73
2021/12/05 03:25:24;;;;;;;14.00;6.30;;;;;;;7.49;78.16;99150.28;3076894;28;20141;-74
2021/12/05 03:26:57;;;;;;;16.00;7.32;;;;;;;7.49;78.07;99146.84;3079529;28;20137;-71
2021/12/05 03:28:29;;;;;;;20.67;6.25;;;;;;;7.47;78.36;99146.91;3079767;28;20057;-73
2021/12/05 03:30:01;;;;;;;15.98;6.32;;;;;;;7.46;78.14;99150.41;3078343;28;20856;-74
2021/12/05 03:31:35;;;;;;;17.23;6.35;;;;;;;7.45;78.38;99147.88;3078881;28;20196;-74
2021/12/05 03:33:07;;;;;;;22.02;7.43;;;;;;;7.44;78.53;99152.22;3077904;28;20110;-73
2021/12/05 03:34:39;;;;;;;17.23;6.57;;;;;;;7.47;78.12;99146.06;3079464;28;20065;-72
2021/12/05 03:36:11;;;;;;;20.35;7.07;;;;;;;7.47;78.36;99139.13;3076598;28;20109;-73
2021/12/05 03:37:45;;;;;;;17.83;6.53;;;;;;;7.47;78.32;99138.28;3079530;28;20055;-73
2021/12/05 03:39:19;;;;;;;19.55;7.00;;;;;;;7.47;78.09;99136.53;3079616;28;20084;-74
2021/12/05 03:40:52;;;;;;;17.30;7.25;;;;;;;7.49;78.17;99139.91;3077769;28;20125;-74
2021/12/05 03:42:24;;;;;;;19.52;7.38;;;;;;;7.44;78.17;99136.66;3073068;28;20054;-67
2021/12/05 03:43:56;;;;;;;21.90;8.13;;;;;;;7.41;78.65;99143.72;3077088;28;20046;-73
2021/12/05 03:45:31;;;;;;;23.30;7.50;;;;;;;7.44;78.21;99144.44;3079181;28;20055;-73
2021/12/05 03:47:06;;;;;;;23.63;8.45;;;;;;;7.45;78.27;99145.28;3078676;28;20097;-73
2021/12/05 03:48:40;;;;;;;28.48;7.68;;;;;;;7.44;78.57;99146.19;3076602;28;20160;-76
2021/12/05 03:50:14;;;;;;;26.73;9.20;;;;;;;7.46;78.37;99145.22;3078743;28;20074;-72
2021/12/05 03:51:48;;;;;;;25.55;9.10;;;;;;;7.45;78.52;99148.72;3078341;28;20651;-73
2021/12/05 03:53:21;;;;;;;28.65;10.90;;;;;;;7.28;78.33;99114.94;3079154;28;20054;-74
2021/12/05 03:54:54;;;;;;;27.55;11.15;;;;;;;7.46;78.52;99150.41;3078262;28;20121;-74
2021/12/05 03:56:25;;;;;;;29.60;10.20;;;;;;;7.46;78.41;99154.75;3079380;28;20058;-74
2021/12/05 03:57:57;;;;;;;28.73;11.50;;;;;;;7.48;78.27;99150.31;3079116;28;20057;-74
2021/12/05 03:59:29;;;;;;;27.73;12.00;;;;;;;7.50;78.54;99157.13;3077485;28;20094;-74
2021/12/05 04:01:05;;;;;;;34.88;13.00;;;;;;;7.53;78.54;99156.16;3079094;28;20468;-74
2021/12/05 04:02:36;;;;;;;24.48;11.48;;;;;;;7.55;78.45;99158.69;3073701;28;20050;-73
2021/12/05 04:04:10;;;;;;;32.67;13.50;;;;;;;7.53;78.19;99159.59;3075284;28;20160;-74
2021/12/05 04:05:42;;;;;;;32.65;12.50;;;;;;;7.52;78.53;99165.69;3072066;28;20544;-74
2021/12/05 04:07:15;;;;;;;26.75;11.73;;;;;;;7.51;78.26;99166.59;3073773;28;20066;-74
2021/12/05 04:08:48;;;;;;;32.28;13.68;;;;;;;7.50;78.40;99162.31;3076787;28;20065;-74
2021/12/05 04:10:25;;;;;;;24.45;12.07;;;;;;;7.50;78.42;99170.06;3073258;28;20062;-74
2021/12/05 04:12:00;;;;;;;27.98;13.05;;;;;;;7.49;78.51;99175.34;3074994;28;20117;-73
2021/12/05 04:13:33;;;;;;;27.83;12.23;;;;;;;7.49;78.71;99176.19;3074664;28;20464;-74
2021/12/05 04:15:07;;;;;;;26.17;11.88;;;;;;;7.51;78.36;99173.50;3073671;28;20054;-72
2021/12/05 04:16:40;;;;;;;26.65;12.32;;;;;;;7.54;78.37;99183.75;3075695;28;20050;-74
2021/12/05 04:18:12;;;;;;;29.48;12.48;;;;;;;7.51;78.33;99176.09;3074647;28;20050;-72
2021/12/05 04:19:45;;;;;;;25.17;11.30;;;;;;;7.57;78.47;99185.34;3075343;28;20066;-72
2021/12/05 04:21:18;;;;;;;20.50;10.07;;;;;;;7.38;78.02;99156.81;3072855;28;20067;-74
2021/12/05 04:22:51;;;;;;;21.65;9.88;;;;;;;7.51;78.24;99195.09;3077156;28;20050;-74
2021/12/05 04:24:23;;;;;;;24.15;11.30;;;;;;;7.47;78.49;99193.53;3076077;28;20062;-74
2021/12/05 04:25:57;;;;;;;24.95;10.35;;;;;;;7.43;78.54;99178.19;3075489;28;20054;-76
2021/12/05 04:27:29;;;;;;;24.20;10.23;;;;;;;7.46;78.42;99194.44;3075306;28;20117;-76
2021/12/05 04:29:02;;;;;;;23.95;10.90;;;;;;;7.48;78.70;99209.91;3072289;28;20057;-75
2021/12/05 04:30:35;;;;;;;19.83;8.95;;;;;;;7.48;78.33;99199.53;3074850;28;20335;-77
2021/12/05 04:32:08;;;;;;;24.05;10.40;;;;;;;7.48;78.67;99200.41;3075722;28;20527;-77
2021/12/05 04:33:39;;;;;;;23.27;9.68;;;;;;;7.46;78.52;99185.84;3073665;28;20137;-77
2021/12/05 04:35:12;;;;;;;21.88;10.55;;;;;;;7.48;78.45;99184.00;3073697;28;20051;-77
2021/12/05 04:36:45;;;;;;;23.33;9.93;;;;;;;7.49;78.42;99183.13;3072347;28;20050;-77
2021/12/05 04:38:17;;;;;;;21.65;9.20;;;;;;;7.45;78.92;99185.00;3076523;28;20138;-77
2021/12/05 04:39:50;;;;;;;23.85;8.73;;;;;;;7.46;78.66;99178.91;3073099;28;20152;-77
2021/12/05 04:41:24;;;;;;;22.90;8.07;;;;;;;7.48;78.52;99181.41;3076995;28;20061;-76
2021/12/05 04:42:56;;;;;;;23.08;7.53;;;;;;;7.19;78.56;99136.03;3074175;28;20051;-77
2021/12/05 04:44:29;;;;;;;18.25;8.32;;;;;;;7.48;78.56;99184.00;3073072;28;20095;-78
2021/12/05 04:46:01;;;;;;;22.08;8.48;;;;;;;7.46;78.28;99181.50;3076126;28;20066;-72
2021/12/05 04:47:33;;;;;;;22.90;8.52;;;;;;;7.51;78.31;99189.06;3072941;28;20055;-74
2021/12/05 04:49:07;;;;;;;21.10;7.93;;;;;;;7.46;78.32;99184.09;3074420;28;20051;-74
2021/12/05 04:50:39;;;;;;;28.83;9.82;;;;;;;7.48;78.64;99194.38;3074049;28;20057;-73
2021/12/05 04:52:13;;;;;;;25.88;9.40;;;;;;;7.49;78.48;99194.31;3073594;28;20650;-73
2021/12/05 04:53:45;;;;;;;37.10;11.05;;;;;;;7.38;78.69;99193.91;3081236;28;20050;-73
2021/12/05 04:55:17;;;;;;;33.00;10.98;;;;;;;7.40;78.90;99189.53;3074518;28;20065;-73
2021/12/05 04:56:51;;;;;;;34.70;11.35;;;;;;;7.42;78.64;99190.28;3075415;28;20073;-73
2021/12/05 04:58:23;;;;;;;32.10;11.27;;;;;;;7.43;78.38;99198.91;3074929;28;20497;-72
2021/12/05 04:59:55;;;;;;;26.88;8.90;;;;;;;7.39;78.37;99190.41;3074303;28;20061;-73
2021/12/05 05:01:28;;;;;;;27.33;10.40;;;;;;;7.42;78.58;99194.63;3074407;28;20063;-73
2021/12/05 05:03:01;;;;;;;28.35;8.68;;;;;;;7.41;78.63;99198.97;3072390;28;20787;-73
2021/12/05 05:04:40;;;;;;;30.63;9.25;;;;;;;7.45;78.65;99205.72;3075472;28;20120;-73
2021/12/05 05:06:15;;;;;;;27.67;8.55;;;;;;;7.41;78.54;99208.50;3072676;28;20137;-73
2021/12/05 05:07:47;;;;;;;30.55;8.93;;;;;;;7.38;78.70;99214.63;3075185;28;20101;-74
2021/12/05 05:09:19;;;;;;;32.80;9.25;;;;;;;7.27;78.62;99212.47;3075359;28;20062;-73
2021/12/05 05:10:51;;;;;;;34.22;8.65;;;;;;;7.26;78.73;99218.56;3072804;28;20627;-75
2021/12/05 05:12:26;;;;;;;31.67;8.90;;;;;;;7.30;78.55;99211.50;3074414;28;20051;-74
2021/12/05 05:13:58;;;;;;;22.13;8.35;;;;;;;7.31;78.82;99218.41;3072913;28;20055;-74
2021/12/05 05:15:31;;;;;;;26.40;8.55;;;;;;;7.33;78.48;99218.31;3074749;28;20527;-75
2021/12/05 05:17:03;;;;;;;23.47;8.33;;;;;;;7.33;78.63;99221.75;3074104;28;20053;-74
2021/12/05 05:18:42;;;;;;;26.65;7.80;;;;;;;7.33;78.65;99226.09;3073028;28;20325;-74
2021/12/05 05:20:22;;;;;;;34.70;8.10;;;;;;;7.33;78.43;99226.94;3075318;28;20082;-74
2021/12/05 05:22:02;;;;;;;29.20;7.85;;;;;;;7.34;78.53;99227.78;3073212;28;20169;-74
2021/12/05 05:23:54;;;;;;;27.27;7.90;;;;;;;7.36;78.70;99231.16;3072471;28;20547;-74
2021/12/05 05:44:14;;;;;;;24.85;7.43;;;;;;;7.42;78.67;99236.06;3042718;28;20631;-74
2021/12/05 05:45:56;;;;;;;27.98;8.30;;;;;;;7.42;78.40;99236.91;3073941;28;20470;-74
2021/12/05 05:47:33;;;;;;;30.58;8.55;;;;;;;7.43;78.57;99225.66;3072737;28;20065;-74
2021/12/05 05:49:14;;;;;;;38.28;10.13;;;;;;;7.45;78.42;99226.44;3068728;28;20640;-75
2021/12/05 05:50:46;;;;;;;27.30;8.43;;;;;;;7.45;78.28;99221.28;3071744;28;20046;-74
2021/12/05 05:52:19;;;;;;;28.42;12.55;;;;;;;7.49;78.41;99225.41;3067998;28;20239;-75
2021/12/05 05:53:51;;;;;;;31.98;10.55;;;;;;;7.50;78.13;99226.25;3075434;28;20051;-74
2021/12/05 05:55:23;;;;;;;32.33;8.07;;;;;;;7.51;78.48;99223.59;3072496;28;20113;-74
2021/12/05 05:57:00;;;;;;;35.75;9.82;;;;;;;7.53;78.23;99237.31;3072072;28;20088;-74
2021/12/05 05:58:41;;;;;;;35.90;9.80;;;;;;;7.53;78.11;99241.66;3072287;28;20051;-75
2021/12/05 06:00:19;;;;;;;34.45;9.05;;;;;;;7.51;78.27;99241.75;3074213;28;20068;-75
2021/12/05 06:03:18;;;;;;;35.17;9.80;;;;;;;7.55;78.22;99236.44;3072464;28;20053;-75
2021/12/05 06:03:51;;;;;;;35.25;10.32;;;;;;;7.50;78.30;99239.19;3067948;28;20058;-75
2021/12/05 06:05:23;;;;;;;28.27;8.18;;;;;;;7.56;78.26;99238.09;3071538;28;20508;-74
2021/12/05 06:06:55;;;;;;;33.70;7.95;;;;;;;7.59;78.02;99245.75;3073200;28;20178;-76
2021/12/05 06:08:29;;;;;;;27.25;8.20;;;;;;;7.62;78.01;99243.84;3076865;28;20050;-75
2021/12/05 06:10:01;;;;;;;31.88;9.32;;;;;;;7.61;77.96;99237.00;3072393;28;20089;-75
2021/12/05 06:11:33;;;;;;;33.20;9.13;;;;;;;7.64;77.80;99238.63;3073864;28;20070;-74
2021/12/05 06:13:06;;;;;;;38.05;10.27;;;;;;;7.66;77.97;99244.56;3073625;28;20753;-74
2021/12/05 06:14:38;;;;;;;41.78;10.68;;;;;;;7.63;77.89;99242.09;3072901;28;20840;-75
2021/12/05 06:16:15;;;;;;;34.05;9.43;;;;;;;7.62;77.73;99236.09;3072538;28;20062;-75
2021/12/05 06:17:49;;;;;;;29.52;8.93;;;;;;;7.68;77.83;99247.94;3072415;28;20051;-74
2021/12/05 06:19:21;;;;;;;28.58;9.23;;;;;;;7.69;77.62;99254.81;3073782;28;20501;-74
2021/12/05 06:20:54;;;;;;;37.67;11.20;;;;;;;7.68;77.61;99260.91;3071506;28;20081;-73
2021/12/05 06:22:26;;;;;;;28.77;9.57;;;;;;;7.68;77.64;99261.75;3076372;28;20067;-74
2021/12/05 06:23:58;;;;;;;31.75;10.98;;;;;;;7.69;77.76;99266.03;3076480;28;20102;-74
2021/12/05 06:25:34;;;;;;;50.60;17.38;;;;;;;7.71;77.59;99274.56;3072897;28;20062;-74
2021/12/05 06:27:06;;;;;;;39.15;13.18;;;;;;;7.69;77.58;99267.75;3072542;28;20126;-74
2021/12/05 06:28:41;;;;;;;35.72;11.63;;;;;;;7.69;77.73;99268.63;3069702;28;20209;-74
2021/12/05 06:30:16;;;;;;;36.92;11.07;;;;;;;7.46;77.60;99228.13;3073985;28;20550;-74
2021/12/05 06:31:59;;;;;;;36.00;11.00;;;;;;;7.74;77.47;99268.41;3070525;28;20133;-73
2021/12/05 06:41:05;;;;;;;34.88;12.43;;;;;;;7.72;77.81;99275.44;3073135;28;20062;-74
2021/12/05 06:42:49;;;;;;;33.53;11.00;;;;;;;7.74;77.80;99273.59;3070990;28;20054;-75
2021/12/05 06:46:17;;;;;;;29.88;11.48;;;;;;;7.75;77.62;99276.16;3072029;28;20054;-75
2021/12/05 06:47:49;;;;;;;32.03;10.85;;;;;;;7.74;77.55;99274.44;3071751;28;20093;-70
2021/12/05 06:49:23;;;;;;;36.15;9.73;;;;;;;7.79;77.59;99276.00;3072190;28;20543;-75
2021/12/05 06:50:55;;;;;;;26.13;9.15;;;;;;;7.72;77.57;99265.91;3072381;28;21011;-75
2021/12/05 06:52:27;;;;;;;23.33;7.45;;;;;;;7.73;77.75;99277.13;3070745;28;20520;-71
2021/12/05 06:54:00;;;;;;;19.40;7.78;;;;;;;7.73;77.48;99279.69;3071605;28;20771;-71
2021/12/05 06:55:32;;;;;;;34.28;10.00;;;;;;;7.73;77.56;99287.47;3073680;28;20366;-70
2021/12/05 06:57:05;;;;;;;27.13;10.63;;;;;;;7.74;77.66;99294.34;3071053;28;20512;-71
2021/12/05 06:58:37;;;;;;;33.17;10.13;;;;;;;7.71;77.57;99297.06;3072048;28;20145;-72
2021/12/05 07:00:13;;;;;;;29.30;9.52;;;;;;;7.77;77.59;99289.03;3072418;28;20137;-72
2021/12/05 07:01:46;;;;;;;25.65;10.23;;;;;;;7.79;77.69;99287.22;3070412;28;20062;-73
2021/12/05 07:03:18;;;;;;;33.97;11.32;;;;;;;7.81;77.71;99284.56;3072607;28;20054;-74
2021/12/05 07:05:12;;;;;;;33.70;13.55;;;;;;;7.84;77.45;99281.81;3072302;28;20057;-72
2021/12/05 07:06:44;;;;;;;37.58;11.88;;;;;;;7.73;77.59;99271.94;3073212;28;20504;-74
2021/12/05 07:08:17;;;;;;;31.05;10.70;;;;;;;7.87;77.63;99290.34;3071749;28;20085;-72
2021/12/05 07:09:50;;;;;;;33.38;10.68;;;;;;;7.90;77.61;99294.56;3072543;28;20050;-73
2021/12/05 07:11:26;;;;;;;30.77;11.18;;;;;;;7.88;77.54;99296.38;3071609;28;20159;-73
2021/12/05 07:14:50;;;;;;;39.90;11.75;;;;;;;7.87;77.41;99290.34;3071874;28;20567;-71
2021/12/05 07:16:28;;;;;;;32.15;10.70;;;;;;;7.73;77.38;99253.78;3070424;28;20684;-71
2021/12/05 07:19:57;;;;;;;24.23;9.18;;;;;;;7.97;77.27;99283.00;3069913;28;20503;-71
2021/12/05 07:21:41;;;;;;;24.95;9.15;;;;;;;8.01;76.98;99279.38;3071138;28;20067;-66
2021/12/05 07:23:23;;;;;;;;;;;;;;;7.79;77.32;99281.19;3070942;28;20526;-74
2021/12/05 07:25:05;;;;;;;28.35;9.60;;;;;;;7.87;77.45;99277.38;3071528;28;19958;-73
2021/12/05 07:26:47;;;;;;;34.28;10.52;;;;;;;7.91;77.47;99268.56;3074189;28;20319;-73
2021/12/05 07:41:41;;;;;;;43.83;15.88;;;;;;;8.19;76.92;99276.00;3071718;28;20051;-63
2021/12/05 07:43:17;;;;;;;52.65;18.35;;;;;;;8.23;76.95;99266.31;3071242;28;20118;-64
2021/12/05 07:44:49;;;;;;;56.28;19.48;;;;;;;8.27;76.71;99260.06;3073232;28;20047;-64
2021/12/05 07:46:21;;;;;;;44.53;17.67;;;;;;;8.34;76.37;99268.41;3072583;28;20146;-65
2021/12/05 07:47:55;;;;;;;51.33;19.65;;;;;;;8.34;76.19;99248.53;3072340;28;20546;-65
2021/12/05 07:49:27;;;;;;;52.42;18.67;;;;;;;8.44;76.11;99264.56;3071795;28;20170;-67
2021/12/05 07:51:09;;;;;;;50.08;20.05;;;;;;;8.50;75.76;99266.03;3071008;28;20059;-66
2021/12/05 07:52:49;;;;;;;60.33;20.45;;;;;;;8.51;75.55;99267.72;3071776;28;20285;-66
2021/12/05 07:54:31;;;;;;;54.65;20.52;;;;;;;8.51;76.07;99270.31;3070496;28;20062;-64
2021/12/05 07:56:10;;;;;;;56.30;21.70;;;;;;;8.53;75.69;99273.69;3070614;28;20558;-64
2021/12/05 07:57:59;;;;;;;74.47;31.27;;;;;;;8.48;75.57;99265.25;3072262;28;20757;-66
2021/12/05 07:59:46;;;;;;;64.72;27.65;;;;;;;8.52;76.11;99266.78;3073240;28;20570;-65
2021/12/05 08:14:21;;;;;;;79.22;29.10;;;;;;;8.54;75.94;99264.97;3074113;28;20519;-62
2021/12/05 08:14:33;;;;;;;68.03;20.95;;;;;;;8.71;75.44;99280.63;3074373;28;20055;-64
2021/12/05 08:16:09;;;;;;;70.72;21.98;;;;;;;8.75;75.30;99279.56;3073237;28;20077;-63
2021/12/05 08:17:48;;;;;;;67.75;21.33;;;;;;;8.49;75.19;99220.22;3072648;28;20058;-68
2021/12/05 08:19:21;;;;;;;68.35;19.67;;;;;;;8.85;74.99;99282.59;3074970;28;20051;-71
2021/12/05 08:20:53;;;;;;;72.00;25.30;;;;;;;8.87;74.83;99270.38;3074080;28;20043;-71
2021/12/05 08:22:25;;;;;;;68.60;21.15;;;;;;;8.90;75.10;99272.81;3075771;28;20886;-68
2021/12/05 08:23:59;;;;;;;75.13;20.88;;;;;;;8.95;74.80;99267.41;3074087;28;20054;-68
2021/12/05 08:25:34;;;;;;;71.20;21.23;;;;;;;8.97;74.61;99274.22;3074074;28;20096;-63
2021/12/05 08:27:07;;;;;;;67.38;22.15;;;;;;;9.00;74.58;99275.84;3074591;28;20129;-61
2021/12/05 08:29:00;;;;;;;76.60;22.35;;;;;;;9.01;74.28;99264.53;3072597;28;20084;-61
2021/12/05 08:30:35;;;;;;;74.75;22.95;;;;;;;9.05;74.85;99264.31;3072238;28;20059;-64
2021/12/05 08:32:23;;;;;;;79.15;23.75;;;;;;;9.13;74.53;99260.50;3074354;28;20542;-63
2021/12/05 08:34:06;;;;;;;66.40;21.55;;;;;;;9.19;74.35;99265.41;3073823;28;20090;-64
2021/12/05 08:38:20;;;;;;;78.95;22.63;;;;;;;9.16;74.00;99258.59;3035355;29;20052;-64
2021/12/05 09:31:02;;;;;;;63.30;21.73;;;;;;;10.24;71.01;99249.69;3073240;28;20511;-66
2021/12/05 09:40:15;;;;;;;66.63;26.48;;;;;;;10.31;70.15;99226.81;3032285;28;20048;-66
2021/12/05 10:08:18;;;;;;;62.58;26.50;;;;;;;11.14;68.30;99186.63;3057010;29;20051;-66
2021/12/05 10:10:05;;;;;;;64.10;25.80;;;;;;;11.20;67.70;99171.56;3057948;28;20110;-68
2021/12/05 10:11:44;;;;;;;65.07;28.75;;;;;;;11.35;67.54;99174.13;3077986;28;20051;-72
2021/12/05 10:13:26;;;;;;;67.30;27.35;;;;;;;11.43;67.00;99173.69;3077282;28;20081;-72
2021/12/05 10:15:19;;;;;;;69.05;26.50;;;;;;;11.55;66.77;99178.16;3077312;28;20677;-72
2021/12/05 10:17:07;;;;;;;67.80;27.95;;;;;;;11.66;66.77;99184.53;3077654;28;20606;-73
2021/12/05 10:19:23;;;;;;;66.80;28.20;;;;;;;11.73;66.26;99185.84;3076190;28;20484;-74
2021/12/05 10:26:41;;;;;;;74.60;31.75;;;;;;;11.73;65.62;99185.84;3077892;28;20058;-73
2021/12/05 10:34:06;;;;;;;72.93;30.85;;;;;;;11.71;65.41;99169.44;3071811;28;20683;-69
2021/12/05 10:36:00;;;;;;;72.88;32.72;;;;;;;11.58;65.19;99140.66;3072208;28;20050;-72
2021/12/05 10:37:46;;;;;;;69.67;30.80;;;;;;;11.79;65.17;99164.59;3072995;28;20077;-69
2021/12/05 10:39:23;;;;;;;81.05;34.85;;;;;;;11.80;64.76;99150.63;3073339;28;20528;-70
2021/12/05 10:41:02;;;;;;;83.72;34.25;;;;;;;11.92;64.57;99159.50;3071320;28;20449;-69
2021/12/05 10:42:43;;;;;;;82.40;35.08;;;;;;;11.97;64.47;99163.50;3074450;28;20520;-69
2021/12/05 10:44:16;;;;;;;66.43;30.52;;;;;;;11.84;64.12;99158.19;3071329;28;20055;-69
2021/12/05 10:45:51;;;;;;;73.93;32.15;;;;;;;11.91;64.24;99155.22;3074163;28;20239;-69
2021/12/05 10:47:37;;;;;;;151.90;67.55;;;;;;;11.97;63.79;99149.63;3072212;28;20046;-72
2021/12/05 10:49:13;;;;;;;80.60;32.45;;;;;;;12.01;64.04;99146.75;3069137;28;20146;-76
2021/12/05 10:50:47;;;;;;;68.50;30.33;;;;;;;12.01;64.09;99143.31;3072461;28;20047;-63
2021/12/05 10:52:22;;;;;;;69.55;29.48;;;;;;;11.99;63.72;99132.94;3073804;28;20539;-63
2021/12/05 10:53:56;;;;;;;63.55;29.05;;;;;;;11.94;63.79;99132.38;3072741;28;20546;-65
2021/12/05 10:55:29;;;;;;;57.28;26.00;;;;;;;11.86;63.81;99123.34;3071906;28;20051;-65
2021/12/05 10:57:03;;;;;;;62.28;28.63;;;;;;;11.71;63.86;99115.53;3072792;28;20065;-65
2021/12/05 10:58:39;;;;;;;63.10;27.33;;;;;;;11.72;64.32;99109.38;3070023;28;20067;-67
2021/12/05 11:00:13;;;;;;;58.78;26.60;;;;;;;11.68;64.38;99115.69;3072933;28;20550;-67
2021/12/05 11:01:48;;;;;;;65.65;28.95;;;;;;;11.70;64.13;99115.59;3074001;28;20047;-67
2021/12/05 11:03:22;;;;;;;54.78;24.67;;;;;;;11.63;64.20;99115.13;3070537;28;20285;-68
2021/12/05 11:04:56;;;;;;;66.22;28.95;;;;;;;11.46;64.57;99115.31;3074127;28;20263;-66
2021/12/05 11:06:35;;;;;;;65.22;29.10;;;;;;;11.51;64.47;99111.50;3071121;28;20047;-65
2021/12/05 11:08:37;;;;;;;57.80;26.10;;;;;;;11.47;64.59;99102.16;3074216;28;20058;-66
2021/12/05 11:10:11;;;;;;;55.25;24.00;;;;;;;11.48;64.87;99106.47;3072366;28;20862;-65
2021/12/05 11:11:46;;;;;;;57.38;24.85;;;;;;;11.49;64.90;99095.09;3073245;28;20863;-66
2021/12/05 11:13:26;;;;;;;51.35;24.50;;;;;;;11.57;64.12;99105.91;3072316;28;20054;-66
2021/12/05 11:15:02;;;;;;;58.17;24.92;;;;;;;11.60;64.68;99102.28;3070262;28;20047;-66
2021/12/05 11:16:51;;;;;;;58.13;24.95;;;;;;;11.48;64.21;99075.19;3072079;28;20055;-65
2021/12/05 11:18:44;;;;;;;60.10;25.95;;;;;;;11.29;64.14;99100.66;3069417;28;20054;-67
2021/12/05 11:20:29;;;;;;;60.13;26.45;;;;;;;11.22;64.81;99091.53;3073272;28;20054;-65
2021/12/05 11:22:16;;;;;;;59.97;27.08;;;;;;;11.12;64.56;99094.69;3070089;28;20077;-66
2021/12/05 11:24:04;;;;;;;60.08;27.60;;;;;;;10.68;65.06;99040.81;3075355;28;20054;-68